createdAt,value
2018-08-30T00:01:09.280Z,19.07
2018-08-30T00:03:38.475Z,19.06
2018-08-30T00:06:07.355Z,19.11
2018-08-30T00:08:36.071Z,19.03
2018-08-30T00:11:05.159Z,19.14
2018-08-30T00:13:34.087Z,18.96
2018-08-30T00:16:03.283Z,18.96
2018-08-30T00:18:32.146Z,18.68
2018-08-30T00:21:00.820Z,18.45
2018-08-30T00:23:29.688Z,18.49
2018-08-30T00:25:58.409Z,18.42
2018-08-30T00:28:27.735Z,18.40
2018-08-30T00:30:56.739Z,18.32
2018-08-30T00:33:25.988Z,18.26
2018-08-30T00:35:55.010Z,18.38
2018-08-30T00:38:23.971Z,18.24
2018-08-30T00:40:52.920Z,18.32
2018-08-30T00:43:21.837Z,18.41
2018-08-30T00:45:50.905Z,18.57
2018-08-30T00:48:19.791Z,18.59
2018-08-30T00:50:48.614Z,18.43
2018-08-30T00:53:17.285Z,18.39
2018-08-30T00:55:46.011Z,18.41
2018-08-30T00:58:15.147Z,18.35
2018-08-30T01:00:44.431Z,18.37
2018-08-30T01:03:13.707Z,18.20
2018-08-30T01:05:42.499Z,18.14
2018-08-30T01:08:11.347Z,18.00
2018-08-30T01:10:40.302Z,17.94
2018-08-30T01:13:09.218Z,18.11
2018-08-30T01:15:37.919Z,17.99
2018-08-30T01:18:06.887Z,17.90
2018-08-30T01:20:35.515Z,17.89
2018-08-30T01:23:04.307Z,17.84
2018-08-30T01:25:33.049Z,17.84
2018-08-30T01:28:02.474Z,17.79
2018-08-30T01:30:31.291Z,17.94
2018-08-30T01:33:00.318Z,17.79
2018-08-30T01:35:29.317Z,17.40
2018-08-30T01:37:58.184Z,17.83
2018-08-30T01:40:27.123Z,17.78
2018-08-30T01:42:55.978Z,17.92
2018-08-30T01:45:24.864Z,18.01
2018-08-30T01:47:53.924Z,17.85
2018-08-30T01:50:22.887Z,17.86
2018-08-30T01:52:51.696Z,17.95
2018-08-30T01:55:20.425Z,18.03
2018-08-30T01:57:49.361Z,17.75
2018-08-30T02:00:18.555Z,17.72
2018-08-30T02:02:47.659Z,17.68
2018-08-30T02:05:16.698Z,17.60
2018-08-30T02:07:45.714Z,17.65
2018-08-30T02:10:14.577Z,17.65
2018-08-30T02:12:43.716Z,17.70
2018-08-30T02:15:12.659Z,17.67
2018-08-30T02:17:41.957Z,17.62
2018-08-30T02:20:10.999Z,17.58
2018-08-30T02:22:39.908Z,17.51
2018-08-30T02:25:08.660Z,17.56
2018-08-30T02:27:37.586Z,17.75
2018-08-30T02:30:07.403Z,17.82
2018-08-30T02:32:36.474Z,17.76
2018-08-30T02:35:05.502Z,17.80
2018-08-30T02:37:34.601Z,17.50
2018-08-30T02:40:03.588Z,17.42
2018-08-30T02:42:32.678Z,17.47
2018-08-30T02:45:01.535Z,17.41
2018-08-30T02:47:30.530Z,17.50
2018-08-30T02:49:59.487Z,17.35
2018-08-30T02:52:28.268Z,17.41
2018-08-30T02:54:57.061Z,17.22
2018-08-30T02:57:25.970Z,17.16
2018-08-30T02:59:55.204Z,17.11
2018-08-30T03:02:24.431Z,17.21
2018-08-30T03:04:53.403Z,17.20
2018-08-30T03:07:22.217Z,17.21
2018-08-30T03:09:51.088Z,17.45
2018-08-30T03:12:19.863Z,17.55
2018-08-30T03:15:09.035Z,17.57
2018-08-30T03:17:38.007Z,17.67
2018-08-30T03:20:09.204Z,17.59
2018-08-30T03:22:39.122Z,17.58
2018-08-30T03:25:08.146Z,17.76
2018-08-30T03:27:37.178Z,17.86
2018-08-30T03:30:06.900Z,17.80
2018-08-30T03:32:35.980Z,17.76
2018-08-30T03:35:04.902Z,17.79
2018-08-30T03:37:34.075Z,17.77
2018-08-30T03:40:03.364Z,17.48
2018-08-30T03:42:32.735Z,16.90
2018-08-30T03:45:01.980Z,17.56
2018-08-30T03:47:31.063Z,17.55
2018-08-30T03:50:00.195Z,17.44
2018-08-30T03:52:29.150Z,17.47
2018-08-30T03:54:58.067Z,17.39
2018-08-30T03:57:26.982Z,17.29
2018-08-30T03:59:55.907Z,17.16
2018-08-30T04:02:24.894Z,17.21
2018-08-30T04:04:53.926Z,17.21
2018-08-30T04:07:23.134Z,17.25
2018-08-30T04:09:52.124Z,17.33
2018-08-30T04:12:21.455Z,17.40
2018-08-30T04:14:50.419Z,17.48
2018-08-30T04:17:19.394Z,17.36
2018-08-30T04:19:48.319Z,17.48
2018-08-30T04:22:17.110Z,17.53
2018-08-30T04:24:45.829Z,17.51
2018-08-30T04:27:15.028Z,17.41
2018-08-30T04:29:43.896Z,17.55
2018-08-30T04:32:13.019Z,17.53
2018-08-30T04:34:42.083Z,17.48
2018-08-30T04:37:11.733Z,17.60
2018-08-30T04:39:40.671Z,17.81
2018-08-30T04:42:09.614Z,17.92
2018-08-30T04:44:38.552Z,17.97
2018-08-30T04:47:07.283Z,18.05
2018-08-30T04:49:36.388Z,18.18
2018-08-30T04:52:05.174Z,18.21
2018-08-30T04:54:33.894Z,18.32
2018-08-30T04:57:03.106Z,18.45
2018-08-30T04:59:32.031Z,18.54
2018-08-30T05:02:00.799Z,18.61
2018-08-30T05:04:29.994Z,18.66
2018-08-30T05:06:59.200Z,17.20
2018-08-30T05:09:28.481Z,18.94
2018-08-30T05:11:57.535Z,19.08
2018-08-30T05:14:26.616Z,19.09
2018-08-30T05:16:55.696Z,19.15
2018-08-30T05:19:24.683Z,19.15
2018-08-30T05:21:53.489Z,19.29
2018-08-30T05:24:22.100Z,19.34
2018-08-30T05:26:51.282Z,19.55
2018-08-30T05:29:20.111Z,19.58
2018-08-30T05:31:49.232Z,19.75
2018-08-30T05:34:18.164Z,19.88
2018-08-30T05:36:47.192Z,20.03
2018-08-30T05:39:16.067Z,20.20
2018-08-30T05:41:45.072Z,20.31
2018-08-30T05:44:15.014Z,20.57
2018-08-30T05:46:43.899Z,20.54
2018-08-30T05:49:12.817Z,20.72
2018-08-30T05:51:41.493Z,20.75
2018-08-30T05:54:10.240Z,20.73
2018-08-30T05:56:39.310Z,20.37
2018-08-30T05:59:08.469Z,20.56
2018-08-30T06:01:37.510Z,20.82
2018-08-30T06:04:06.703Z,21.19
2018-08-30T06:06:35.800Z,21.25
2018-08-30T06:09:05.517Z,21.48
2018-08-30T06:11:34.366Z,21.43
2018-08-30T06:14:03.294Z,21.33
2018-08-30T06:16:32.456Z,21.57
2018-08-30T06:19:01.741Z,21.42
2018-08-30T06:21:30.458Z,21.27
2018-08-30T06:23:59.207Z,21.11
2018-08-30T06:26:28.476Z,21.64
2018-08-30T06:28:57.233Z,21.82
2018-08-30T06:31:26.118Z,21.82
2018-08-30T06:33:55.090Z,21.81
2018-08-30T06:36:24.021Z,22.11
2018-08-30T06:38:53.394Z,22.15
2018-08-30T06:41:22.447Z,22.08
2018-08-30T06:43:51.284Z,21.99
2018-08-30T06:46:20.127Z,22.37
2018-08-30T06:48:49.089Z,22.44
2018-08-30T06:51:17.890Z,22.54
2018-08-30T06:53:46.621Z,22.65
2018-08-30T06:56:15.662Z,22.64
2018-08-30T06:58:44.811Z,22.77
2018-08-30T07:01:14.050Z,23.05
2018-08-30T07:03:43.027Z,23.08
2018-08-30T07:06:11.991Z,23.07
2018-08-30T07:08:40.951Z,23.09
2018-08-30T07:11:09.898Z,23.20
2018-08-30T07:13:38.745Z,23.37
2018-08-30T07:16:08.062Z,23.58
2018-08-30T07:18:37.038Z,23.61
2018-08-30T07:21:06.038Z,23.75
2018-08-30T07:23:34.827Z,23.90
2018-08-30T07:26:03.725Z,24.14
2018-08-30T07:28:32.833Z,24.41
2018-08-30T07:31:01.713Z,24.40
2018-08-30T07:33:30.605Z,24.37
2018-08-30T07:35:59.596Z,24.33
2018-08-30T07:38:28.419Z,24.45
2018-08-30T07:40:57.308Z,24.59
2018-08-30T07:43:26.266Z,24.91
2018-08-30T07:45:55.314Z,24.89
2018-08-30T07:48:24.146Z,24.94
2018-08-30T07:50:53.152Z,24.74
2018-08-30T07:53:22.022Z,25.22
2018-08-30T07:55:50.744Z,25.46
2018-08-30T07:58:19.623Z,25.39
2018-08-30T08:00:48.916Z,25.58
2018-08-30T08:03:19.300Z,25.86
2018-08-30T08:05:48.324Z,25.91
2018-08-30T08:08:17.188Z,25.99
2018-08-30T08:10:46.628Z,26.30
2018-08-30T08:13:15.458Z,26.08
2018-08-30T08:15:44.637Z,26.30
2018-08-30T08:18:13.558Z,26.44
2018-08-30T08:20:42.289Z,26.58
2018-08-30T08:23:11.051Z,26.58
2018-08-30T08:25:39.835Z,26.85
2018-08-30T08:28:08.924Z,26.87
2018-08-30T08:30:38.031Z,27.08
2018-08-30T08:33:06.859Z,27.03
2018-08-30T08:35:36.033Z,27.33
2018-08-30T08:38:05.000Z,27.47
2018-08-30T08:40:34.144Z,27.58
2018-08-30T08:43:02.886Z,27.64
2018-08-30T08:45:31.940Z,27.55
2018-08-30T08:48:01.096Z,27.34
2018-08-30T08:50:30.002Z,27.25
2018-08-30T08:52:58.715Z,27.47
2018-08-30T08:55:28.358Z,27.71
2018-08-30T08:57:57.612Z,28.10
2018-08-30T09:00:26.515Z,27.92
2018-08-30T09:02:55.476Z,27.79
2018-08-30T09:05:24.554Z,27.81
2018-08-30T09:07:53.679Z,28.38
2018-08-30T09:10:23.062Z,28.35
2018-08-30T09:12:52.059Z,28.30
2018-08-30T09:15:20.900Z,28.40
2018-08-30T09:17:49.822Z,28.49
2018-08-30T09:20:18.540Z,28.83
2018-08-30T09:22:47.490Z,28.85
2018-08-30T09:25:16.308Z,28.97
2018-08-30T09:27:45.442Z,29.16
2018-08-30T09:30:14.204Z,29.30
2018-08-30T09:32:43.028Z,29.32
2018-08-30T09:35:11.783Z,29.34
2018-08-30T09:37:40.617Z,29.58
2018-08-30T09:40:09.826Z,29.50
2018-08-30T09:42:38.794Z,29.15
2018-08-30T09:45:07.892Z,29.57
2018-08-30T09:47:36.815Z,29.88
2018-08-30T09:50:05.607Z,30.28
2018-08-30T09:52:34.310Z,30.22
2018-08-30T09:55:03.159Z,30.54
2018-08-30T09:57:32.469Z,30.81
2018-08-30T10:00:01.786Z,30.48
2018-08-30T10:02:34.812Z,30.51
2018-08-30T10:05:03.829Z,31.14
2018-08-30T10:07:32.738Z,31.28
2018-08-30T10:10:01.779Z,31.83
2018-08-30T10:12:30.833Z,32.07
2018-08-30T10:14:59.773Z,32.68
2018-08-30T10:17:28.818Z,32.27
2018-08-30T10:19:57.559Z,33.12
2018-08-30T10:22:26.340Z,33.11
2018-08-30T10:24:54.974Z,33.36
2018-08-30T10:27:25.044Z,33.23
2018-08-30T10:29:53.882Z,33.58
2018-08-30T10:32:22.809Z,33.41
2018-08-30T10:34:52.078Z,33.23
2018-08-30T10:37:20.914Z,33.10
2018-08-30T10:39:50.040Z,33.29
2018-08-30T10:42:19.138Z,31.10
2018-08-30T10:44:48.240Z,33.12
2018-08-30T10:47:17.412Z,33.06
2018-08-30T10:49:46.076Z,33.12
2018-08-30T10:52:14.882Z,33.14
2018-08-30T10:54:43.597Z,32.96
2018-08-30T10:57:12.515Z,33.01
2018-08-30T10:59:41.810Z,33.11
2018-08-30T11:02:10.715Z,33.14
2018-08-30T11:04:39.974Z,33.91
2018-08-30T11:07:09.234Z,34.15
2018-08-30T11:09:38.271Z,33.92
2018-08-30T11:12:06.935Z,34.64
2018-08-30T11:14:35.836Z,35.14
2018-08-30T11:17:05.186Z,35.42
2018-08-30T11:19:33.954Z,35.78
2018-08-30T11:22:02.645Z,36.31
2018-08-30T11:24:31.394Z,35.87
2018-08-30T11:27:00.118Z,35.79
2018-08-30T11:29:29.434Z,36.09
2018-08-30T11:31:58.432Z,36.21
2018-08-30T11:34:27.514Z,36.47
2018-08-30T11:36:56.261Z,36.20
2018-08-30T11:39:25.385Z,36.80
2018-08-30T11:41:54.419Z,36.80
2018-08-30T11:44:23.174Z,36.59
2018-08-30T11:46:52.283Z,36.59
2018-08-30T11:49:21.458Z,36.07
2018-08-30T11:51:50.291Z,36.14
2018-08-30T11:54:19.013Z,36.01
2018-08-30T11:56:47.885Z,35.57
2018-08-30T11:59:16.695Z,35.25
2018-08-30T12:01:45.663Z,35.11
2018-08-30T12:04:14.628Z,34.78
2018-08-30T12:06:43.722Z,34.47
2018-08-30T12:09:12.771Z,34.71
2018-08-30T12:11:42.145Z,34.95
2018-08-30T12:14:10.878Z,34.02
2018-08-30T12:16:39.670Z,34.76
2018-08-30T12:19:08.794Z,35.80
2018-08-30T12:21:37.440Z,35.98
2018-08-30T12:24:06.292Z,36.06
2018-08-30T12:26:35.219Z,36.90
2018-08-30T12:29:04.280Z,36.94
2018-08-30T12:31:33.481Z,37.37
2018-08-30T12:34:02.444Z,37.44
2018-08-30T12:36:31.632Z,37.41
2018-08-30T12:39:00.475Z,37.82
2018-08-30T12:41:29.705Z,38.15
2018-08-30T12:43:59.029Z,38.38
2018-08-30T12:46:28.114Z,38.59
2018-08-30T12:48:57.146Z,39.02
2018-08-30T12:51:26.072Z,39.36
2018-08-30T12:53:54.617Z,39.16
2018-08-30T12:56:23.864Z,38.95
2018-08-30T12:58:56.655Z,39.46
2018-08-30T13:01:25.657Z,39.90
2018-08-30T13:03:54.458Z,39.43
2018-08-30T13:06:23.744Z,40.47
2018-08-30T13:08:53.012Z,40.73
2018-08-30T13:11:21.987Z,41.21
2018-08-30T13:13:50.896Z,40.46
2018-08-30T13:16:19.862Z,40.73
2018-08-30T13:18:48.790Z,41.38
2018-08-30T13:21:17.602Z,38.95
2018-08-30T13:23:46.479Z,40.11
2018-08-30T13:26:15.514Z,37.97
2018-08-30T13:28:44.483Z,39.82
2018-08-30T13:31:13.378Z,39.93
2018-08-30T13:33:42.669Z,40.01
2018-08-30T13:36:11.388Z,40.51
2018-08-30T13:38:40.743Z,38.95
2018-08-30T13:41:09.964Z,39.49
2018-08-30T13:43:38.745Z,39.93
2018-08-30T13:46:07.876Z,40.67
2018-08-30T13:48:36.700Z,40.58
2018-08-30T13:51:05.612Z,40.42
2018-08-30T13:53:34.255Z,40.52
2018-08-30T13:56:03.259Z,40.52
2018-08-30T13:58:32.446Z,40.63
2018-08-30T14:01:01.231Z,40.79
2018-08-30T14:03:30.098Z,39.52
2018-08-30T14:05:58.869Z,40.38
2018-08-30T14:08:28.277Z,39.93
2018-08-30T14:10:57.587Z,40.34
2018-08-30T14:13:26.834Z,40.25
2018-08-30T14:15:55.486Z,40.69
2018-08-30T14:18:24.352Z,40.76
2018-08-30T14:20:53.091Z,39.73
2018-08-30T14:23:22.125Z,39.73
2018-08-30T14:25:50.944Z,38.65
2018-08-30T14:28:19.681Z,38.25
2018-08-30T14:30:48.769Z,38.71
2018-08-30T14:33:18.265Z,38.94
2018-08-30T14:35:48.606Z,39.69
2018-08-30T14:38:17.599Z,40.02
2018-08-30T14:40:47.052Z,39.45
2018-08-30T14:43:15.918Z,39.18
2018-08-30T14:45:44.926Z,40.03
2018-08-30T14:48:14.027Z,40.62
2018-08-30T14:50:42.814Z,39.70
2018-08-30T14:53:11.627Z,39.28
2018-08-30T14:55:40.698Z,40.06
2018-08-30T14:58:09.806Z,40.68
2018-08-30T15:00:38.588Z,40.75
2018-08-30T15:03:07.598Z,40.94
2018-08-30T15:05:36.557Z,41.02
2018-08-30T15:08:05.632Z,40.88
2018-08-30T15:10:34.398Z,40.45
2018-08-30T15:13:03.254Z,41.54
2018-08-30T15:15:32.054Z,41.59
2018-08-30T15:18:00.826Z,41.78
2018-08-30T15:20:29.494Z,41.87
2018-08-30T15:22:58.290Z,41.96
2018-08-30T15:25:27.440Z,42.51
2018-08-30T15:27:56.252Z,42.73
2018-08-30T15:30:25.437Z,42.90
2018-08-30T15:32:54.296Z,43.27
2018-08-30T15:35:23.119Z,43.24
2018-08-30T15:37:52.042Z,43.05
2018-08-30T15:40:21.107Z,42.90
2018-08-30T15:42:50.377Z,42.68
2018-08-30T15:45:19.504Z,42.44
2018-08-30T15:47:48.660Z,42.57
2018-08-30T15:50:17.505Z,42.28
2018-08-30T15:52:46.337Z,42.53
2018-08-30T15:55:15.486Z,42.55
2018-08-30T15:57:44.579Z,41.81
2018-08-30T16:00:15.784Z,42.12
2018-08-30T16:02:45.185Z,42.13
2018-08-30T16:05:14.246Z,41.82
2018-08-30T16:07:43.759Z,41.98
2018-08-30T16:10:13.610Z,41.97
2018-08-30T16:12:42.539Z,41.84
2018-08-30T16:15:11.802Z,41.16
2018-08-30T16:17:40.556Z,40.94
2018-08-30T16:20:09.378Z,39.63
2018-08-30T16:23:09.002Z,38.44
2018-08-30T16:25:37.891Z,38.06
2018-08-30T16:28:07.055Z,37.65
2018-08-30T16:30:36.168Z,37.31
2018-08-30T16:33:05.242Z,37.00
2018-08-30T16:35:34.220Z,36.46
2018-08-30T16:38:03.395Z,36.03
2018-08-30T16:40:32.389Z,35.57
2018-08-30T16:43:01.664Z,35.05
2018-08-30T16:45:30.568Z,34.55
2018-08-30T16:47:59.327Z,34.05
2018-08-30T16:50:28.202Z,33.52
2018-08-30T16:52:57.258Z,32.95
2018-08-30T16:55:26.258Z,32.28
2018-08-30T16:57:55.162Z,31.77
2018-08-30T17:00:24.644Z,31.91
2018-08-30T17:02:54.166Z,31.42
2018-08-30T17:05:23.262Z,30.61
2018-08-30T17:07:52.208Z,30.74
2018-08-30T17:10:21.060Z,30.28
2018-08-30T17:12:50.116Z,30.20
2018-08-30T17:15:19.247Z,30.20
2018-08-30T17:17:48.342Z,30.11
2018-08-30T17:20:21.844Z,29.69
2018-08-30T17:22:50.830Z,29.54
2018-08-30T17:25:19.701Z,29.45
2018-08-30T17:27:48.823Z,29.40
2018-08-30T17:30:17.542Z,29.25
2018-08-30T17:32:46.358Z,28.95
2018-08-30T17:35:15.500Z,28.93
2018-08-30T17:37:44.435Z,28.81
2018-08-30T17:40:13.474Z,28.71
2018-08-30T17:42:42.795Z,28.59
2018-08-30T17:45:11.899Z,28.46
2018-08-30T17:47:40.839Z,28.29
2018-08-30T17:50:10.142Z,28.17
2018-08-30T17:52:39.022Z,27.96
2018-08-30T17:55:08.079Z,27.93
2018-08-30T17:57:37.054Z,27.86
2018-08-30T18:00:07.461Z,27.74
2018-08-30T18:02:36.575Z,27.57
2018-08-30T18:05:06.250Z,27.49
2018-08-30T18:07:35.411Z,27.29
2018-08-30T18:10:04.746Z,27.13
2018-08-30T18:12:35.309Z,26.98
2018-08-30T18:15:03.584Z,26.57
2018-08-30T18:17:32.393Z,26.64
2018-08-30T18:20:01.212Z,26.36
2018-08-30T18:22:30.142Z,26.41
2018-08-30T18:24:58.884Z,26.35
2018-08-30T18:27:27.554Z,26.26
2018-08-30T18:29:56.483Z,26.12
2018-08-30T18:32:25.396Z,25.98
2018-08-30T18:34:54.614Z,25.59
2018-08-30T18:37:23.770Z,25.31
2018-08-30T18:39:52.766Z,25.07
2018-08-30T18:42:21.576Z,24.79
2018-08-30T18:44:50.339Z,24.68
2018-08-30T18:47:19.175Z,24.42
2018-08-30T18:49:47.908Z,24.27
2018-08-30T18:52:16.625Z,24.15
2018-08-30T18:54:45.571Z,24.14
2018-08-30T18:57:14.304Z,23.76
2018-08-30T18:59:43.087Z,23.60
2018-08-30T19:02:12.019Z,23.71
2018-08-30T19:04:41.187Z,23.75
2018-08-30T19:07:10.289Z,23.73
2018-08-30T19:09:39.477Z,23.58
2018-08-30T19:12:08.561Z,23.18
2018-08-30T19:14:37.456Z,23.29
2018-08-30T19:17:11.978Z,23.38
2018-08-30T19:19:40.653Z,23.05
2018-08-30T19:22:09.375Z,23.05
2018-08-30T19:24:43.458Z,23.17
2018-08-30T19:27:12.468Z,22.96
2018-08-30T19:29:46.290Z,22.98
2018-08-30T19:32:15.432Z,23.06
2018-08-30T19:34:44.155Z,23.02
2018-08-30T19:37:13.038Z,23.05
2018-08-30T19:39:41.929Z,23.02
2018-08-30T19:42:10.735Z,23.01
2018-08-30T19:44:39.679Z,22.90
2018-08-30T19:47:08.728Z,22.88
2018-08-30T19:49:37.451Z,22.49
2018-08-30T19:52:06.306Z,22.43
2018-08-30T19:54:35.273Z,22.51
2018-08-30T19:57:04.499Z,22.07
2018-08-30T19:59:33.847Z,22.00
2018-08-30T20:02:02.992Z,22.27
2018-08-30T20:04:31.832Z,22.09
2018-08-30T20:07:00.506Z,22.63
2018-08-30T20:09:29.430Z,22.33
2018-08-30T20:11:58.314Z,22.59
2018-08-30T20:14:27.406Z,22.63
2018-08-30T20:16:56.493Z,22.46
2018-08-30T20:19:25.336Z,22.32
2018-08-30T20:21:54.153Z,22.28
2018-08-30T20:24:22.896Z,21.94
2018-08-30T20:26:51.924Z,21.99
2018-08-30T20:29:20.771Z,21.83
2018-08-30T20:31:49.682Z,21.80
2018-08-30T20:34:18.511Z,21.81
2018-08-30T20:36:47.230Z,21.56
2018-08-30T20:39:15.909Z,21.34
2018-08-30T20:41:44.854Z,21.52
2018-08-30T20:44:14.043Z,21.50
2018-08-30T20:46:43.410Z,21.44
2018-08-30T20:49:12.182Z,21.35
2018-08-30T20:51:40.978Z,21.44
2018-08-30T20:54:10.174Z,21.25
2018-08-30T20:56:39.387Z,21.21
2018-08-30T20:59:09.465Z,21.11
2018-08-30T21:01:38.590Z,21.05
2018-08-30T21:04:07.441Z,21.02
2018-08-30T21:09:15.362Z,21.01
2018-08-30T21:11:44.131Z,20.90
2018-08-30T21:14:13.202Z,21.11
2018-08-30T21:16:42.085Z,20.92
2018-08-30T21:19:10.892Z,20.76
2018-08-30T21:21:39.616Z,20.71
2018-08-30T21:24:08.569Z,20.84
2018-08-30T21:26:37.694Z,21.07
2018-08-30T21:29:06.835Z,21.17
2018-08-30T21:31:35.900Z,21.11
2018-08-30T21:34:04.838Z,20.90
2018-08-30T21:36:33.954Z,20.89
2018-08-30T21:39:02.798Z,21.01
2018-08-30T21:41:31.710Z,20.92
2018-08-30T21:44:00.737Z,20.89
2018-08-30T21:46:29.627Z,20.78
2018-08-30T21:48:58.388Z,20.85
2018-08-30T21:51:27.371Z,20.59
2018-08-30T21:53:56.247Z,20.51
2018-08-30T21:56:25.467Z,20.50
2018-08-30T21:58:54.420Z,20.62
2018-08-30T22:01:23.407Z,20.31
2018-08-30T22:03:52.289Z,20.33
2018-08-30T22:06:21.191Z,20.21
2018-08-30T22:08:49.887Z,19.99
2018-08-30T22:11:18.727Z,20.22
2018-08-30T22:13:47.931Z,20.25
2018-08-30T22:16:16.737Z,20.10
2018-08-30T22:18:45.476Z,19.88
2018-08-30T22:21:14.161Z,19.97
2018-08-30T22:23:42.965Z,19.95
2018-08-30T22:26:11.982Z,20.16
2018-08-30T22:28:41.280Z,19.90
2018-08-30T22:31:10.220Z,19.96
2018-08-30T22:33:39.266Z,20.03
2018-08-30T22:36:08.190Z,19.83
2018-08-30T22:38:37.357Z,19.84
2018-08-30T22:41:06.475Z,19.75
2018-08-30T22:43:35.418Z,19.88
2018-08-30T22:46:04.218Z,20.01
2018-08-30T22:48:33.147Z,19.92
2018-08-30T22:51:01.803Z,19.75
2018-08-30T22:53:30.753Z,19.66
2018-08-30T22:55:59.653Z,19.65
2018-08-30T22:58:28.745Z,19.61
2018-08-30T23:00:57.786Z,19.73
2018-08-30T23:03:27.062Z,19.44
2018-08-30T23:05:56.099Z,19.20
2018-08-30T23:08:24.976Z,19.24
2018-08-30T23:10:54.374Z,19.23
2018-08-30T23:13:23.457Z,19.09
2018-08-30T23:15:52.191Z,19.06
2018-08-30T23:18:20.979Z,19.07
2018-08-30T23:20:49.727Z,19.12
2018-08-30T23:23:19.076Z,19.18
2018-08-30T23:25:47.762Z,19.35
2018-08-30T23:28:16.680Z,19.45
2018-08-30T23:30:45.799Z,19.49
2018-08-30T23:33:14.803Z,19.57
2018-08-30T23:35:43.931Z,19.50
2018-08-30T23:38:12.890Z,19.45
2018-08-30T23:40:41.957Z,19.22
2018-08-30T23:43:10.773Z,19.25
2018-08-30T23:45:39.530Z,19.18
2018-08-30T23:48:08.323Z,19.06
2018-08-30T23:50:37.051Z,19.25
2018-08-30T23:53:06.103Z,19.25
2018-08-30T23:55:35.006Z,19.21
2018-08-30T23:58:14.890Z,19.15
